CAL118 RCTP-RJFK
Flight info
| Callsign | CAL118 |
|---|---|
| Flight time | 1h 47m |
| Altitude | 37000 |
| Route | MOLKA1A MOLKA M750 MOMPA Y451 HKC OIDON |
| Aircraft | A333/H-SDE3GHIJ2J3J5M1RVWXYZ/LB2D1 |
Departure
| Time | 2026-04-21 12:56 |
|---|---|
| Airport | Taiwan Taoyuan International Airport (RCTP) |
Arrival
| Time | 2026-04-21 14:43 |
|---|---|
| Airport | Kagoshima Airport (RJFK) |
| Time | Latitude | Longitude | Altitude | Speed | Heading |
|---|---|---|---|---|---|
| 2026-04-21 11:10 | 25.07854 | 121.22979 | 102 ft | 0 kts | 139° |
| 2026-04-21 11:19 | 25.07854 | 121.22978 | 105 ft | 0 kts | 139° |
| 2026-04-21 11:30 | 25.07855 | 121.22978 | 102 ft | 0 kts | 139° |
| 2026-04-21 11:51 | 25.07855 | 121.22977 | 105 ft | 0 kts | 139° |
| 2026-04-21 12:02 | 25.07856 | 121.22977 | 105 ft | 0 kts | 139° |
| 2026-04-21 12:25 | 25.07856 | 121.22976 | 105 ft | 0 kts | 139° |
| 2026-04-21 12:36 | 25.07862 | 121.22971 | 110 ft | 3 kts | 139° |
| 2026-04-21 12:36 | 25.07877 | 121.22957 | 101 ft | 3 kts | 139° |
| 2026-04-21 12:36 | 25.07892 | 121.22942 | 104 ft | 3 kts | 139° |
| 2026-04-21 12:36 | 25.07908 | 121.22927 | 103 ft | 3 kts | 139° |
| 2026-04-21 12:37 | 25.07922 | 121.22913 | 103 ft | 3 kts | 149° |
| 2026-04-21 12:37 | 25.07934 | 121.22909 | 102 ft | 3 kts | 214° |
| 2026-04-21 12:37 | 25.07943 | 121.22918 | 102 ft | 2 kts | 229° |
| 2026-04-21 12:37 | 25.07955 | 121.22933 | 103 ft | 3 kts | 229° |
| 2026-04-21 12:38 | 25.07965 | 121.22945 | 103 ft | 1 kts | 229° |
| 2026-04-21 12:38 | 25.07965 | 121.22946 | 103 ft | 3 kts | 229° |
| 2026-04-21 12:38 | 25.07966 | 121.22946 | 103 ft | 0 kts | 229° |
| 2026-04-21 12:40 | 25.07960 | 121.22939 | 103 ft | 4 kts | 229° |
| 2026-04-21 12:40 | 25.07927 | 121.22898 | 103 ft | 9 kts | 228° |
| 2026-04-21 12:41 | 25.07887 | 121.22848 | 106 ft | 8 kts | 230° |
| 2026-04-21 12:41 | 25.07851 | 121.22800 | 107 ft | 11 kts | 230° |
| 2026-04-21 12:41 | 25.07791 | 121.22723 | 105 ft | 13 kts | 229° |
| 2026-04-21 12:41 | 25.07730 | 121.22648 | 105 ft | 13 kts | 228° |
| 2026-04-21 12:42 | 25.07675 | 121.22572 | 105 ft | 12 kts | 232° |
| 2026-04-21 12:42 | 25.07619 | 121.22505 | 105 ft | 12 kts | 227° |
| 2026-04-21 12:42 | 25.07569 | 121.22441 | 107 ft | 11 kts | 230° |
| 2026-04-21 12:42 | 25.07523 | 121.22381 | 106 ft | 10 kts | 229° |
| 2026-04-21 12:43 | 25.07477 | 121.22321 | 107 ft | 10 kts | 229° |
| 2026-04-21 12:43 | 25.07439 | 121.22273 | 105 ft | 9 kts | 230° |
| 2026-04-21 12:43 | 25.07383 | 121.22205 | 106 ft | 14 kts | 230° |
| 2026-04-21 12:43 | 25.07307 | 121.22135 | 106 ft | 8 kts | 184° |
| 2026-04-21 12:44 | 25.07285 | 121.22149 | 106 ft | 3 kts | 147° |
| 2026-04-21 12:44 | 25.07254 | 121.22173 | 106 ft | 9 kts | 142° |
| 2026-04-21 12:44 | 25.07187 | 121.22234 | 107 ft | 15 kts | 139° |
| 2026-04-21 12:44 | 25.07099 | 121.22319 | 106 ft | 18 kts | 140° |
| 2026-04-21 12:45 | 25.06996 | 121.22414 | 107 ft | 21 kts | 140° |
| 2026-04-21 12:45 | 25.06885 | 121.22520 | 105 ft | 21 kts | 139° |
| 2026-04-21 12:45 | 25.06786 | 121.22613 | 105 ft | 18 kts | 141° |
| 2026-04-21 12:45 | 25.06720 | 121.22659 | 107 ft | 9 kts | 173° |
| 2026-04-21 12:46 | 25.06668 | 121.22625 | 107 ft | 9 kts | 226° |
| 2026-04-21 12:46 | 25.06625 | 121.22570 | 106 ft | 10 kts | 229° |
| 2026-04-21 12:46 | 25.06575 | 121.22507 | 104 ft | 11 kts | 229° |
| 2026-04-21 12:46 | 25.06520 | 121.22438 | 105 ft | 13 kts | 229° |
| 2026-04-21 12:47 | 25.06460 | 121.22363 | 105 ft | 14 kts | 228° |
| 2026-04-21 12:47 | 25.06393 | 121.22283 | 106 ft | 15 kts | 225° |
| 2026-04-21 12:47 | 25.06301 | 121.22250 | 105 ft | 14 kts | 184° |
| 2026-04-21 12:47 | 25.06214 | 121.22252 | 104 ft | 7 kts | 166° |
| 2026-04-21 12:48 | 25.06191 | 121.22267 | 103 ft | 2 kts | 142° |
| 2026-04-21 12:48 | 25.06187 | 121.22270 | 105 ft | 0 kts | 142° |
| 2026-04-21 12:54 | 25.06156 | 121.22298 | 104 ft | 13 kts | 138° |
| 2026-04-21 12:54 | 25.06128 | 121.22405 | 102 ft | 16 kts | 65° |
| 2026-04-21 12:54 | 25.06156 | 121.22446 | 102 ft | 8 kts | 50° |
| 2026-04-21 12:55 | 25.06256 | 121.22575 | 103 ft | 45 kts | 49° |
| 2026-04-21 12:55 | 25.06587 | 121.22994 | 99 ft | 98 kts | 49° |
| 2026-04-21 12:55 | 25.07149 | 121.23706 | 100 ft | 146 kts | 49° |
| 2026-04-21 12:55 | 25.07885 | 121.24652 | 245 ft | 175 kts | 53° |
| 2026-04-21 12:56 | 25.08697 | 121.25761 | 558 ft | 195 kts | 54° |
| 2026-04-21 12:56 | 25.09555 | 121.26987 | 887 ft | 215 kts | 54° |
| 2026-04-21 12:56 | 25.10561 | 121.28306 | 1246 ft | 231 kts | 51° |
| 2026-04-21 12:56 | 25.11662 | 121.29610 | 1967 ft | 230 kts | 49° |
| 2026-04-21 12:57 | 25.12792 | 121.30888 | 2545 ft | 238 kts | 48° |
| 2026-04-21 12:57 | 25.13971 | 121.32225 | 3046 ft | 247 kts | 49° |
| 2026-04-21 12:57 | 25.15171 | 121.33590 | 3703 ft | 249 kts | 47° |
| 2026-04-21 12:57 | 25.16378 | 121.34969 | 4403 ft | 250 kts | 47° |
| 2026-04-21 12:58 | 25.17569 | 121.36336 | 5086 ft | 251 kts | 47° |
| 2026-04-21 12:58 | 25.18793 | 121.37743 | 5692 ft | 257 kts | 47° |
| 2026-04-21 12:58 | 25.20046 | 121.39185 | 6271 ft | 264 kts | 46° |
| 2026-04-21 12:58 | 25.21328 | 121.40660 | 6909 ft | 268 kts | 46° |
| 2026-04-21 12:59 | 25.22661 | 121.42196 | 7389 ft | 284 kts | 46° |
| 2026-04-21 12:59 | 25.24054 | 121.43801 | 8078 ft | 295 kts | 46° |
| 2026-04-21 12:59 | 25.25486 | 121.45451 | 8922 ft | 299 kts | 46° |
| 2026-04-21 12:59 | 25.26943 | 121.47131 | 9736 ft | 306 kts | 45° |
| 2026-04-21 13:00 | 25.28375 | 121.48888 | 10357 ft | 318 kts | 51° |
| 2026-04-21 13:00 | 25.29627 | 121.50995 | 10675 ft | 341 kts | 63° |
| 2026-04-21 13:00 | 25.30464 | 121.53522 | 11015 ft | 360 kts | 77° |
| 2026-04-21 13:00 | 25.30719 | 121.56299 | 11657 ft | 367 kts | 92° |
| 2026-04-21 13:01 | 25.30554 | 121.59123 | 12403 ft | 370 kts | 92° |
| 2026-04-21 13:01 | 25.30648 | 121.61988 | 13031 ft | 377 kts | 81° |
| 2026-04-21 13:01 | 25.31107 | 121.64846 | 13838 ft | 377 kts | 77° |
| 2026-04-21 13:01 | 25.31652 | 121.67699 | 14479 ft | 382 kts | 76° |
| 2026-04-21 13:02 | 25.32218 | 121.70588 | 15069 ft | 388 kts | 77° |
| 2026-04-21 13:02 | 25.32784 | 121.73472 | 15730 ft | 389 kts | 77° |
| 2026-04-21 13:02 | 25.33940 | 121.79390 | 16896 ft | 399 kts | 77° |
| 2026-04-21 13:03 | 25.34522 | 121.82386 | 17666 ft | 397 kts | 78° |
| 2026-04-21 13:03 | 25.35102 | 121.85371 | 18304 ft | 399 kts | 78° |
| 2026-04-21 13:03 | 25.35688 | 121.88397 | 18779 ft | 404 kts | 78° |
| 2026-04-21 13:03 | 25.36278 | 121.91444 | 19253 ft | 407 kts | 78° |
| 2026-04-21 13:04 | 25.36871 | 121.94515 | 19730 ft | 411 kts | 78° |
| 2026-04-21 13:04 | 25.37462 | 121.97575 | 20206 ft | 414 kts | 78° |
| 2026-04-21 13:04 | 25.38065 | 122.00700 | 20682 ft | 417 kts | 79° |
| 2026-04-21 13:04 | 25.38673 | 122.03856 | 21154 ft | 421 kts | 79° |
| 2026-04-21 13:05 | 25.39285 | 122.07038 | 21627 ft | 425 kts | 79° |
| 2026-04-21 13:05 | 25.39902 | 122.10248 | 22066 ft | 429 kts | 79° |
| 2026-04-21 13:05 | 25.40522 | 122.13481 | 22533 ft | 432 kts | 79° |
| 2026-04-21 13:05 | 25.41149 | 122.16751 | 22975 ft | 436 kts | 79° |
| 2026-04-21 13:06 | 25.41819 | 122.20035 | 23417 ft | 440 kts | 76° |
| 2026-04-21 13:06 | 25.42743 | 122.23229 | 23820 ft | 444 kts | 71° |
| 2026-04-21 13:06 | 25.43809 | 122.26449 | 24178 ft | 447 kts | 70° |
| 2026-04-21 13:06 | 25.44904 | 122.29687 | 24549 ft | 451 kts | 70° |
| 2026-04-21 13:07 | 25.46008 | 122.32950 | 24900 ft | 454 kts | 70° |
| 2026-04-21 13:07 | 25.47115 | 122.36236 | 25232 ft | 457 kts | 70° |
| 2026-04-21 13:07 | 25.48229 | 122.39548 | 25559 ft | 461 kts | 70° |
| 2026-04-21 13:07 | 25.49350 | 122.42887 | 25926 ft | 464 kts | 70° |
| 2026-04-21 13:08 | 25.50473 | 122.46238 | 26280 ft | 466 kts | 70° |
| 2026-04-21 13:08 | 25.51588 | 122.49569 | 26618 ft | 469 kts | 70° |
| 2026-04-21 13:08 | 25.52724 | 122.52965 | 26953 ft | 472 kts | 70° |
| 2026-04-21 13:08 | 25.53866 | 122.56383 | 27318 ft | 474 kts | 70° |
| 2026-04-21 13:09 | 25.55010 | 122.59809 | 27701 ft | 475 kts | 70° |
| 2026-04-21 13:09 | 25.56158 | 122.63251 | 28008 ft | 479 kts | 70° |
| 2026-04-21 13:09 | 25.57315 | 122.66724 | 28308 ft | 482 kts | 70° |
| 2026-04-21 13:09 | 25.58479 | 122.70221 | 28620 ft | 485 kts | 70° |
| 2026-04-21 13:10 | 25.59632 | 122.73688 | 28941 ft | 487 kts | 70° |
| 2026-04-21 13:10 | 25.60806 | 122.77221 | 29252 ft | 490 kts | 70° |
| 2026-04-21 13:10 | 25.61985 | 122.80774 | 29559 ft | 492 kts | 70° |
| 2026-04-21 13:10 | 25.63168 | 122.84341 | 29853 ft | 495 kts | 70° |
| 2026-04-21 13:11 | 25.64364 | 122.87930 | 30145 ft | 498 kts | 70° |
| 2026-04-21 13:11 | 25.65574 | 122.91517 | 30409 ft | 500 kts | 70° |
| 2026-04-21 13:11 | 25.66795 | 122.95135 | 30668 ft | 502 kts | 70° |
| 2026-04-21 13:11 | 25.68020 | 122.98766 | 30912 ft | 504 kts | 70° |
| 2026-04-21 13:12 | 25.69229 | 123.02356 | 31233 ft | 504 kts | 69° |
| 2026-04-21 13:12 | 25.70457 | 123.06007 | 31516 ft | 505 kts | 69° |
| 2026-04-21 13:12 | 25.71689 | 123.09670 | 31732 ft | 508 kts | 69° |
| 2026-04-21 13:12 | 25.72926 | 123.13356 | 31965 ft | 511 kts | 69° |
| 2026-04-21 13:13 | 25.74166 | 123.17051 | 32170 ft | 514 kts | 69° |
| 2026-04-21 13:13 | 25.75416 | 123.20783 | 32342 ft | 517 kts | 69° |
| 2026-04-21 13:13 | 25.76669 | 123.24526 | 32628 ft | 518 kts | 69° |
| 2026-04-21 13:13 | 25.77905 | 123.28220 | 32959 ft | 518 kts | 69° |
| 2026-04-21 13:14 | 25.79156 | 123.31966 | 33283 ft | 518 kts | 69° |
| 2026-04-21 13:14 | 25.80407 | 123.35713 | 33561 ft | 518 kts | 69° |
| 2026-04-21 13:14 | 25.81657 | 123.39461 | 33856 ft | 518 kts | 69° |
| 2026-04-21 13:14 | 25.82907 | 123.43215 | 34153 ft | 519 kts | 69° |
| 2026-04-21 13:15 | 25.84150 | 123.46951 | 34639 ft | 512 kts | 70° |
| 2026-04-21 13:15 | 25.85363 | 123.50599 | 35034 ft | 509 kts | 70° |
| 2026-04-21 13:15 | 25.86747 | 123.54216 | 35243 ft | 509 kts | 61° |
| 2026-04-21 13:15 | 25.88685 | 123.57498 | 35430 ft | 508 kts | 48° |
| 2026-04-21 13:16 | 25.91193 | 123.60231 | 35633 ft | 504 kts | 34° |
| 2026-04-21 13:16 | 25.94132 | 123.62299 | 35854 ft | 499 kts | 23° |
| 2026-04-21 13:16 | 25.97242 | 123.63989 | 36090 ft | 497 kts | 21° |
| 2026-04-21 13:16 | 26.00376 | 123.65611 | 36321 ft | 497 kts | 20° |
| 2026-04-21 13:17 | 26.03475 | 123.67211 | 36545 ft | 498 kts | 20° |
| 2026-04-21 13:17 | 26.06619 | 123.68840 | 36675 ft | 500 kts | 21° |
| 2026-04-21 13:17 | 26.09763 | 123.70477 | 36910 ft | 499 kts | 21° |
| 2026-04-21 13:17 | 26.12908 | 123.72119 | 37093 ft | 498 kts | 21° |
| 2026-04-21 13:18 | 26.19098 | 123.75363 | 37110 ft | 488 kts | 21° |
| 2026-04-21 13:18 | 26.25232 | 123.78579 | 37133 ft | 487 kts | 20° |
| 2026-04-21 13:19 | 26.31333 | 123.81782 | 37111 ft | 489 kts | 20° |
| 2026-04-21 13:19 | 26.37496 | 123.85023 | 37110 ft | 490 kts | 20° |
| 2026-04-21 13:20 | 26.43671 | 123.88275 | 37112 ft | 490 kts | 20° |
| 2026-04-21 13:20 | 26.49837 | 123.91526 | 37123 ft | 490 kts | 20° |
| 2026-04-21 13:21 | 26.55955 | 123.94756 | 37111 ft | 490 kts | 20° |
| 2026-04-21 13:21 | 26.62115 | 123.98019 | 37114 ft | 490 kts | 21° |
| 2026-04-21 13:22 | 26.65078 | 123.99954 | 37117 ft | 496 kts | 32° |
| 2026-04-21 13:22 | 26.67689 | 124.02501 | 37119 ft | 501 kts | 44° |
| 2026-04-21 13:22 | 26.72327 | 124.08357 | 37115 ft | 504 kts | 48° |
| 2026-04-21 13:23 | 26.76743 | 124.14394 | 37118 ft | 505 kts | 49° |
| 2026-04-21 13:23 | 26.81187 | 124.20474 | 37120 ft | 504 kts | 48° |
| 2026-04-21 13:24 | 26.85658 | 124.26521 | 37108 ft | 504 kts | 48° |
| 2026-04-21 13:24 | 26.90117 | 124.32519 | 37121 ft | 504 kts | 47° |
| 2026-04-21 13:25 | 26.94607 | 124.38560 | 37123 ft | 504 kts | 47° |
| 2026-04-21 13:25 | 26.99094 | 124.44608 | 37114 ft | 504 kts | 47° |
| 2026-04-21 13:26 | 27.03579 | 124.50659 | 37119 ft | 504 kts | 48° |
| 2026-04-21 13:26 | 27.08027 | 124.56670 | 37119 ft | 504 kts | 47° |
| 2026-04-21 13:27 | 27.12502 | 124.62723 | 37119 ft | 504 kts | 47° |
| 2026-04-21 13:27 | 27.16975 | 124.68784 | 37121 ft | 504 kts | 47° |
| 2026-04-21 13:28 | 27.21446 | 124.74850 | 37115 ft | 504 kts | 47° |
| 2026-04-21 13:28 | 27.25881 | 124.80878 | 37129 ft | 504 kts | 47° |
| 2026-04-21 13:29 | 27.30343 | 124.86948 | 37124 ft | 503 kts | 47° |
| 2026-04-21 13:29 | 27.34800 | 124.93021 | 37124 ft | 503 kts | 47° |
| 2026-04-21 13:30 | 27.39255 | 124.99098 | 37127 ft | 503 kts | 47° |
| 2026-04-21 13:30 | 27.43729 | 125.05159 | 37129 ft | 503 kts | 47° |
| 2026-04-21 13:31 | 27.48181 | 125.11157 | 37127 ft | 502 kts | 47° |
| 2026-04-21 13:31 | 27.52658 | 125.17196 | 37127 ft | 502 kts | 47° |
| 2026-04-21 13:32 | 27.57128 | 125.23241 | 37127 ft | 502 kts | 47° |
| 2026-04-21 13:32 | 27.61567 | 125.29256 | 37131 ft | 501 kts | 47° |
| 2026-04-21 13:33 | 27.66014 | 125.35292 | 37124 ft | 500 kts | 47° |
| 2026-04-21 13:33 | 27.70451 | 125.41321 | 37130 ft | 500 kts | 47° |
| 2026-04-21 13:34 | 27.74888 | 125.47358 | 37130 ft | 500 kts | 47° |
| 2026-04-21 13:34 | 27.79323 | 125.53401 | 37130 ft | 499 kts | 47° |
| 2026-04-21 13:35 | 27.83718 | 125.59398 | 37129 ft | 499 kts | 47° |
| 2026-04-21 13:35 | 27.88142 | 125.65443 | 37127 ft | 499 kts | 47° |
| 2026-04-21 13:36 | 27.92562 | 125.71491 | 37130 ft | 499 kts | 47° |
| 2026-04-21 13:36 | 27.96948 | 125.77500 | 37127 ft | 498 kts | 47° |
| 2026-04-21 13:37 | 28.01353 | 125.83547 | 37131 ft | 497 kts | 47° |
| 2026-04-21 13:37 | 28.05751 | 125.89590 | 37129 ft | 497 kts | 47° |
| 2026-04-21 13:38 | 28.10148 | 125.95641 | 37129 ft | 497 kts | 47° |
| 2026-04-21 13:38 | 28.14510 | 126.01652 | 37132 ft | 497 kts | 48° |
| 2026-04-21 13:39 | 28.18893 | 126.07702 | 37127 ft | 496 kts | 48° |
| 2026-04-21 13:39 | 28.23270 | 126.13750 | 37132 ft | 496 kts | 48° |
| 2026-04-21 13:40 | 28.27645 | 126.19806 | 37129 ft | 496 kts | 48° |
| 2026-04-21 13:40 | 28.31992 | 126.25830 | 37121 ft | 496 kts | 48° |
| 2026-04-21 13:41 | 28.36361 | 126.31894 | 37126 ft | 496 kts | 48° |
| 2026-04-21 13:41 | 28.40724 | 126.37959 | 37127 ft | 496 kts | 48° |
| 2026-04-21 13:42 | 28.45086 | 126.44031 | 37132 ft | 496 kts | 48° |
| 2026-04-21 13:42 | 28.49444 | 126.50106 | 37127 ft | 496 kts | 48° |
| 2026-04-21 13:43 | 28.53770 | 126.56145 | 37127 ft | 496 kts | 48° |
| 2026-04-21 13:43 | 28.58123 | 126.62231 | 37130 ft | 496 kts | 48° |
| 2026-04-21 13:44 | 28.62476 | 126.68325 | 37136 ft | 496 kts | 48° |
| 2026-04-21 13:44 | 28.66827 | 126.74425 | 37127 ft | 497 kts | 48° |
| 2026-04-21 13:45 | 28.71150 | 126.80494 | 37127 ft | 497 kts | 48° |
| 2026-04-21 13:45 | 28.75498 | 126.86609 | 37127 ft | 496 kts | 48° |
| 2026-04-21 13:46 | 28.79844 | 126.92729 | 37131 ft | 497 kts | 48° |
| 2026-04-21 13:46 | 28.84190 | 126.98858 | 37125 ft | 497 kts | 48° |
| 2026-04-21 13:47 | 28.88507 | 127.04956 | 37122 ft | 497 kts | 48° |
| 2026-04-21 13:47 | 28.92846 | 127.11093 | 37125 ft | 497 kts | 48° |
| 2026-04-21 13:48 | 28.97186 | 127.17242 | 37124 ft | 498 kts | 48° |
| 2026-04-21 13:48 | 29.01533 | 127.23408 | 37121 ft | 498 kts | 48° |
| 2026-04-21 13:49 | 29.05878 | 127.29580 | 37122 ft | 498 kts | 48° |
| 2026-04-21 13:49 | 29.10180 | 127.35703 | 37121 ft | 498 kts | 48° |
| 2026-04-21 13:50 | 29.14519 | 127.41886 | 37114 ft | 498 kts | 48° |
| 2026-04-21 13:50 | 29.18861 | 127.48081 | 37108 ft | 499 kts | 48° |
| 2026-04-21 13:51 | 29.23165 | 127.54233 | 37111 ft | 498 kts | 49° |
| 2026-04-21 13:51 | 29.27494 | 127.60431 | 37118 ft | 499 kts | 48° |
| 2026-04-21 13:52 | 29.31829 | 127.66646 | 37115 ft | 499 kts | 48° |
| 2026-04-21 13:52 | 29.36133 | 127.72825 | 37106 ft | 499 kts | 48° |
| 2026-04-21 13:53 | 29.40459 | 127.79045 | 37112 ft | 499 kts | 48° |
| 2026-04-21 13:53 | 29.44788 | 127.85280 | 37116 ft | 499 kts | 48° |
| 2026-04-21 13:54 | 29.49113 | 127.91517 | 37108 ft | 500 kts | 48° |
| 2026-04-21 13:54 | 29.53410 | 127.97725 | 37103 ft | 500 kts | 48° |
| 2026-04-21 13:55 | 29.57737 | 128.03978 | 37121 ft | 500 kts | 48° |
| 2026-04-21 13:55 | 29.62064 | 128.10240 | 37107 ft | 501 kts | 48° |
| 2026-04-21 13:56 | 29.66396 | 128.16518 | 37110 ft | 501 kts | 48° |
| 2026-04-21 13:56 | 29.70696 | 128.22761 | 37111 ft | 501 kts | 48° |
| 2026-04-21 13:57 | 29.75022 | 128.29050 | 37112 ft | 502 kts | 48° |
| 2026-04-21 13:57 | 29.79358 | 128.35365 | 37110 ft | 503 kts | 48° |
| 2026-04-21 13:58 | 29.83658 | 128.41637 | 37109 ft | 503 kts | 48° |
| 2026-04-21 13:58 | 29.87998 | 128.47977 | 37129 ft | 503 kts | 48° |
| 2026-04-21 13:59 | 29.92337 | 128.54325 | 37115 ft | 504 kts | 48° |
| 2026-04-21 13:59 | 29.96672 | 128.60678 | 37112 ft | 504 kts | 48° |
| 2026-04-21 14:00 | 30.00976 | 128.66996 | 37106 ft | 504 kts | 48° |
| 2026-04-21 14:00 | 30.05306 | 128.73361 | 37109 ft | 504 kts | 48° |
| 2026-04-21 14:01 | 30.09633 | 128.79731 | 37113 ft | 504 kts | 48° |
| 2026-04-21 14:01 | 30.13924 | 128.86059 | 37100 ft | 504 kts | 48° |
| 2026-04-21 14:02 | 30.18245 | 128.92441 | 37106 ft | 504 kts | 48° |
| 2026-04-21 14:03 | 30.24733 | 129.02044 | 37102 ft | 505 kts | 48° |
| 2026-04-21 14:03 | 30.29056 | 129.08455 | 37103 ft | 505 kts | 48° |
| 2026-04-21 14:04 | 30.33351 | 129.14836 | 37106 ft | 506 kts | 47° |
| 2026-04-21 14:04 | 30.37678 | 129.21273 | 37101 ft | 507 kts | 47° |
| 2026-04-21 14:05 | 30.42005 | 129.27721 | 37100 ft | 507 kts | 47° |
| 2026-04-21 14:05 | 30.46327 | 129.34173 | 37113 ft | 507 kts | 47° |
| 2026-04-21 14:06 | 30.50622 | 129.40593 | 37100 ft | 507 kts | 47° |
| 2026-04-21 14:06 | 30.54934 | 129.47051 | 36522 ft | 505 kts | 47° |
| 2026-04-21 14:06 | 30.57071 | 129.50259 | 36214 ft | 499 kts | 47° |
| 2026-04-21 14:07 | 30.59185 | 129.53436 | 35830 ft | 496 kts | 47° |
| 2026-04-21 14:07 | 30.61291 | 129.56601 | 35330 ft | 496 kts | 47° |
| 2026-04-21 14:07 | 30.63398 | 129.59764 | 34795 ft | 496 kts | 47° |
| 2026-04-21 14:07 | 30.65480 | 129.62893 | 34307 ft | 496 kts | 47° |
| 2026-04-21 14:08 | 30.67593 | 129.66071 | 33731 ft | 496 kts | 47° |
| 2026-04-21 14:08 | 30.69702 | 129.69247 | 33136 ft | 497 kts | 47° |
| 2026-04-21 14:08 | 30.71809 | 129.72424 | 32551 ft | 497 kts | 47° |
| 2026-04-21 14:08 | 30.73915 | 129.75602 | 31973 ft | 497 kts | 47° |
| 2026-04-21 14:09 | 30.76028 | 129.78792 | 31331 ft | 498 kts | 47° |
| 2026-04-21 14:09 | 30.78143 | 129.81988 | 30741 ft | 499 kts | 47° |
| 2026-04-21 14:09 | 30.80254 | 129.85182 | 30291 ft | 496 kts | 47° |
| 2026-04-21 14:09 | 30.82323 | 129.88317 | 30112 ft | 495 kts | 47° |
| 2026-04-21 14:10 | 30.84587 | 129.91298 | 30086 ft | 486 kts | 34° |
| 2026-04-21 14:10 | 30.90003 | 129.95840 | 30092 ft | 479 kts | 27° |
| 2026-04-21 14:11 | 30.95556 | 130.00165 | 29600 ft | 480 kts | 26° |
| 2026-04-21 14:11 | 30.98332 | 130.02320 | 28970 ft | 479 kts | 26° |
| 2026-04-21 14:11 | 31.01104 | 130.04475 | 28331 ft | 479 kts | 27° |
| 2026-04-21 14:11 | 31.03835 | 130.06599 | 27691 ft | 478 kts | 27° |
| 2026-04-21 14:12 | 31.06605 | 130.08754 | 27081 ft | 477 kts | 27° |
| 2026-04-21 14:12 | 31.09360 | 130.10899 | 26475 ft | 476 kts | 27° |
| 2026-04-21 14:12 | 31.12113 | 130.13044 | 25884 ft | 475 kts | 27° |
| 2026-04-21 14:12 | 31.14854 | 130.15182 | 25307 ft | 474 kts | 27° |
| 2026-04-21 14:13 | 31.17591 | 130.17317 | 24730 ft | 472 kts | 27° |
| 2026-04-21 14:13 | 31.20316 | 130.19445 | 24166 ft | 471 kts | 28° |
| 2026-04-21 14:13 | 31.23002 | 130.21544 | 23645 ft | 469 kts | 28° |
| 2026-04-21 14:13 | 31.25708 | 130.23660 | 22986 ft | 468 kts | 28° |
| 2026-04-21 14:14 | 31.28400 | 130.25767 | 22328 ft | 463 kts | 28° |
| 2026-04-21 14:14 | 31.31047 | 130.27844 | 21712 ft | 450 kts | 28° |
| 2026-04-21 14:14 | 31.33593 | 130.29846 | 21133 ft | 433 kts | 28° |
| 2026-04-21 14:14 | 31.36061 | 130.31784 | 20567 ft | 422 kts | 28° |
| 2026-04-21 14:15 | 31.38485 | 130.33685 | 19992 ft | 417 kts | 28° |
| 2026-04-21 14:15 | 31.40877 | 130.35564 | 19423 ft | 411 kts | 28° |
| 2026-04-21 14:15 | 31.43209 | 130.37394 | 18885 ft | 406 kts | 29° |
| 2026-04-21 14:15 | 31.45529 | 130.39216 | 18328 ft | 400 kts | 29° |
| 2026-04-21 14:16 | 31.47822 | 130.41017 | 17716 ft | 394 kts | 29° |
| 2026-04-21 14:16 | 31.50092 | 130.42800 | 17101 ft | 389 kts | 29° |
| 2026-04-21 14:16 | 31.52325 | 130.44558 | 16507 ft | 384 kts | 29° |
| 2026-04-21 14:16 | 31.54523 | 130.46291 | 15916 ft | 379 kts | 29° |
| 2026-04-21 14:17 | 31.56690 | 130.48002 | 15325 ft | 370 kts | 29° |
| 2026-04-21 14:17 | 31.58783 | 130.49656 | 14783 ft | 355 kts | 29° |
| 2026-04-21 14:17 | 31.60790 | 130.51242 | 14238 ft | 343 kts | 29° |
| 2026-04-21 14:17 | 31.62731 | 130.52775 | 13662 ft | 332 kts | 29° |
| 2026-04-21 14:18 | 31.64616 | 130.54264 | 13040 ft | 323 kts | 29° |
| 2026-04-21 14:18 | 31.66457 | 130.55717 | 12416 ft | 315 kts | 29° |
| 2026-04-21 14:18 | 31.68229 | 130.57117 | 11808 ft | 308 kts | 30° |
| 2026-04-21 14:18 | 31.69962 | 130.58550 | 11202 ft | 305 kts | 36° |
| 2026-04-21 14:19 | 31.71343 | 130.60440 | 10615 ft | 307 kts | 59° |
| 2026-04-21 14:19 | 31.71915 | 130.62826 | 10044 ft | 306 kts | 87° |
| 2026-04-21 14:19 | 31.71485 | 130.65233 | 9397 ft | 303 kts | 116° |
| 2026-04-21 14:19 | 31.70152 | 130.67086 | 8752 ft | 297 kts | 146° |
| 2026-04-21 14:20 | 31.68273 | 130.67950 | 8136 ft | 290 kts | 174° |
| 2026-04-21 14:20 | 31.66311 | 130.67696 | 7530 ft | 282 kts | 202° |
| 2026-04-21 14:20 | 31.64653 | 130.66533 | 6929 ft | 276 kts | 219° |
| 2026-04-21 14:20 | 31.63207 | 130.65110 | 6340 ft | 274 kts | 222° |
| 2026-04-21 14:21 | 31.61777 | 130.63643 | 5709 ft | 272 kts | 221° |
| 2026-04-21 14:21 | 31.60328 | 130.62227 | 5099 ft | 271 kts | 219° |
| 2026-04-21 14:21 | 31.58927 | 130.60759 | 4474 ft | 269 kts | 229° |
| 2026-04-21 14:21 | 31.58059 | 130.58875 | 4077 ft | 259 kts | 258° |
| 2026-04-21 14:22 | 31.58185 | 130.56888 | 3969 ft | 235 kts | 297° |
| 2026-04-21 14:22 | 31.59173 | 130.55516 | 3976 ft | 216 kts | 328° |
| 2026-04-21 14:22 | 31.60494 | 130.54689 | 3974 ft | 216 kts | 339° |
| 2026-04-21 14:22 | 31.61878 | 130.54078 | 3967 ft | 215 kts | 347° |
| 2026-04-21 14:23 | 31.63342 | 130.53872 | 3969 ft | 211 kts | 7° |
| 2026-04-21 14:23 | 31.64722 | 130.54378 | 3967 ft | 207 kts | 30° |
| 2026-04-21 14:23 | 31.65941 | 130.55271 | 3988 ft | 206 kts | 35° |
| 2026-04-21 14:23 | 31.67124 | 130.56218 | 3981 ft | 205 kts | 36° |
| 2026-04-21 14:24 | 31.68310 | 130.57161 | 3967 ft | 206 kts | 35° |
| 2026-04-21 14:24 | 31.69513 | 130.58068 | 3957 ft | 207 kts | 28° |
| 2026-04-21 14:24 | 31.70910 | 130.58270 | 3976 ft | 210 kts | 352° |
| 2026-04-21 14:24 | 31.72313 | 130.57790 | 3959 ft | 210 kts | 343° |
| 2026-04-21 14:25 | 31.73695 | 130.57212 | 3968 ft | 211 kts | 343° |
| 2026-04-21 14:25 | 31.75080 | 130.56655 | 3969 ft | 210 kts | 344° |
| 2026-04-21 14:25 | 31.76472 | 130.56121 | 3974 ft | 211 kts | 345° |
| 2026-04-21 14:25 | 31.77875 | 130.55599 | 3962 ft | 211 kts | 345° |
| 2026-04-21 14:26 | 31.79277 | 130.55092 | 3974 ft | 211 kts | 345° |
| 2026-04-21 14:26 | 31.80658 | 130.54596 | 3976 ft | 210 kts | 346° |
| 2026-04-21 14:26 | 31.82058 | 130.54095 | 3980 ft | 209 kts | 346° |
| 2026-04-21 14:26 | 31.83457 | 130.53599 | 3964 ft | 211 kts | 345° |
| 2026-04-21 14:27 | 31.84859 | 130.53098 | 3975 ft | 210 kts | 345° |
| 2026-04-21 14:27 | 31.86258 | 130.52602 | 3981 ft | 210 kts | 346° |
| 2026-04-21 14:27 | 31.87658 | 130.52111 | 3966 ft | 210 kts | 346° |
| 2026-04-21 14:27 | 31.89060 | 130.51627 | 3974 ft | 209 kts | 347° |
| 2026-04-21 14:28 | 31.90002 | 130.51401 | 3979 ft | 209 kts | 356° |
| 2026-04-21 14:28 | 31.92792 | 130.52930 | 3694 ft | 186 kts | 55° |
| 2026-04-21 14:28 | 31.93452 | 130.54168 | 3624 ft | 171 kts | 59° |
| 2026-04-21 14:29 | 31.94023 | 130.55359 | 3523 ft | 164 kts | 59° |
| 2026-04-21 14:29 | 31.94589 | 130.56541 | 3471 ft | 166 kts | 59° |
| 2026-04-21 14:29 | 31.95162 | 130.57720 | 3481 ft | 166 kts | 60° |
| 2026-04-21 14:29 | 31.95648 | 130.58925 | 3475 ft | 166 kts | 71° |
| 2026-04-21 14:30 | 31.95754 | 130.60276 | 3472 ft | 169 kts | 95° |
| 2026-04-21 14:30 | 31.95307 | 130.61562 | 3439 ft | 173 kts | 123° |
| 2026-04-21 14:30 | 31.94404 | 130.62513 | 3117 ft | 179 kts | 142° |
| 2026-04-21 14:30 | 31.93328 | 130.63281 | 2892 ft | 178 kts | 149° |
| 2026-04-21 14:31 | 31.92279 | 130.63949 | 2929 ft | 166 kts | 150° |
| 2026-04-21 14:31 | 31.91268 | 130.64589 | 2943 ft | 164 kts | 147° |
| 2026-04-21 14:31 | 31.90273 | 130.65239 | 2786 ft | 163 kts | 146° |
| 2026-04-21 14:31 | 31.89301 | 130.65895 | 2763 ft | 164 kts | 148° |
| 2026-04-21 14:32 | 31.88289 | 130.66567 | 2462 ft | 171 kts | 148° |
| 2026-04-21 14:32 | 31.87228 | 130.67284 | 2059 ft | 178 kts | 148° |
| 2026-04-21 14:32 | 31.86150 | 130.68002 | 1652 ft | 178 kts | 149° |
| 2026-04-21 14:32 | 31.85134 | 130.68687 | 1618 ft | 157 kts | 148° |
| 2026-04-21 14:33 | 31.84232 | 130.69269 | 1461 ft | 142 kts | 149° |
| 2026-04-21 14:33 | 31.83405 | 130.69842 | 1303 ft | 136 kts | 144° |
| 2026-04-21 14:33 | 31.82588 | 130.70432 | 1182 ft | 141 kts | 149° |
| 2026-04-21 14:33 | 31.81740 | 130.70967 | 1019 ft | 139 kts | 151° |
| 2026-04-21 14:34 | 31.80911 | 130.71553 | 928 ft | 134 kts | 148° |
| 2026-04-21 14:34 | 31.80109 | 130.72092 | 1192 ft | 145 kts | 151° |
| 2026-04-21 14:34 | 31.79104 | 130.72688 | 1549 ft | 174 kts | 155° |
| 2026-04-21 14:34 | 31.77943 | 130.73264 | 1892 ft | 192 kts | 156° |
| 2026-04-21 14:35 | 31.76598 | 130.73849 | 2071 ft | 221 kts | 162° |
| 2026-04-21 14:35 | 31.74985 | 130.74153 | 2244 ft | 251 kts | 176° |
| 2026-04-21 14:35 | 31.73172 | 130.74082 | 2637 ft | 253 kts | 182° |
| 2026-04-21 14:35 | 31.71616 | 130.73942 | 3461 ft | 202 kts | 182° |
| 2026-04-21 14:36 | 31.70341 | 130.74065 | 3647 ft | 175 kts | 158° |
| 2026-04-21 14:36 | 31.69234 | 130.74684 | 3270 ft | 182 kts | 148° |
| 2026-04-21 14:36 | 31.67982 | 130.75127 | 2789 ft | 199 kts | 173° |
| 2026-04-21 14:36 | 31.66548 | 130.75182 | 2504 ft | 210 kts | 172° |
| 2026-04-21 14:37 | 31.65201 | 130.75791 | 2465 ft | 205 kts | 147° |
| 2026-04-21 14:37 | 31.64186 | 130.76844 | 2450 ft | 188 kts | 120° |
| 2026-04-21 14:37 | 31.63913 | 130.77782 | 2449 ft | 183 kts | 94° |
| 2026-04-21 14:37 | 31.64487 | 130.79554 | 2465 ft | 181 kts | 42° |
| 2026-04-21 14:38 | 31.65599 | 130.80198 | 2463 ft | 180 kts | 15° |
| 2026-04-21 14:38 | 31.66836 | 130.80424 | 2466 ft | 180 kts | 7° |
| 2026-04-21 14:38 | 31.68064 | 130.80166 | 2460 ft | 183 kts | 340° |
| 2026-04-21 14:38 | 31.69204 | 130.79491 | 2468 ft | 185 kts | 333° |
| 2026-04-21 14:39 | 31.70311 | 130.78708 | 2336 ft | 186 kts | 330° |
| 2026-04-21 14:39 | 31.71388 | 130.77916 | 2295 ft | 177 kts | 330° |
| 2026-04-21 14:39 | 31.72402 | 130.77166 | 2114 ft | 176 kts | 330° |
| 2026-04-21 14:39 | 31.73462 | 130.76433 | 1813 ft | 174 kts | 333° |
| 2026-04-21 14:40 | 31.74481 | 130.75799 | 1744 ft | 158 kts | 334° |
| 2026-04-21 14:40 | 31.75446 | 130.75210 | 1714 ft | 156 kts | 335° |
| 2026-04-21 14:40 | 31.76391 | 130.74615 | 1406 ft | 152 kts | 334° |
| 2026-04-21 14:40 | 31.77267 | 130.74023 | 1283 ft | 143 kts | 329° |
| 2026-04-21 14:41 | 31.77824 | 130.73641 | 1214 ft | 135 kts | 333° |
| 2026-04-21 14:41 | 31.78347 | 130.73292 | 1085 ft | 136 kts | 330° |
| 2026-04-21 14:42 | 31.78982 | 130.72856 | 1016 ft | 139 kts | 330° |
| 2026-04-21 14:43 | 31.79806 | 130.72289 | 920 ft | 129 kts | 335° |
| 2026-04-21 14:43 | 31.80456 | 130.71860 | 925 ft | 80 kts | 329° |
| 2026-04-21 14:43 | 31.80766 | 130.71650 | 916 ft | 29 kts | 330° |
| 2026-04-21 14:43 | 31.80939 | 130.71533 | 919 ft | 27 kts | 329° |
| 2026-04-21 14:44 | 31.80986 | 130.71401 | 917 ft | 13 kts | 244° |
| 2026-04-21 14:44 | 31.80933 | 130.71331 | 916 ft | 7 kts | 193° |
| 2026-04-21 14:44 | 31.80887 | 130.71343 | 916 ft | 9 kts | 164° |
| 2026-04-21 14:44 | 31.80844 | 130.71360 | 915 ft | 11 kts | 159° |
| 2026-04-21 14:45 | 31.80765 | 130.71422 | 913 ft | 13 kts | 150° |
| 2026-04-21 14:45 | 31.80675 | 130.71484 | 910 ft | 17 kts | 150° |
| 2026-04-21 14:45 | 31.80569 | 130.71555 | 910 ft | 18 kts | 152° |
| 2026-04-21 14:45 | 31.80450 | 130.71627 | 908 ft | 20 kts | 153° |
| 2026-04-21 14:46 | 31.80365 | 130.71679 | 908 ft | 14 kts | 148° |
| 2026-04-21 14:46 | 31.80289 | 130.71740 | 913 ft | 8 kts | 148° |
| 2026-04-21 14:46 | 31.80239 | 130.71777 | 910 ft | 9 kts | 148° |
| 2026-04-21 14:46 | 31.80185 | 130.71812 | 911 ft | 4 kts | 152° |
| 2026-04-21 14:47 | 31.80165 | 130.71825 | 908 ft | 4 kts | 152° |
| 2026-04-21 14:47 | 31.80151 | 130.71822 | 907 ft | 2 kts | 213° |
| 2026-04-21 14:47 | 31.80135 | 130.71788 | 905 ft | 8 kts | 239° |
| 2026-04-21 14:47 | 31.80117 | 130.71753 | 907 ft | 1 kts | 239° |
| 2026-04-21 14:48 | 31.80107 | 130.71733 | 904 ft | 4 kts | 239° |
| 2026-04-21 14:48 | 31.80098 | 130.71714 | 904 ft | 1 kts | 239° |
| 2026-04-21 14:48 | 31.80096 | 130.71711 | 904 ft | 0 kts | 239° |